sensor_id;sensor_type;location;lat;lon;timestamp;temperature;humidity
72206;DHT22;60111;48.286;7.812;2023-05-07T00:00:20;14.60;76.70
72206;DHT22;60111;48.286;7.812;2023-05-07T00:02:52;14.70;76.60
72206;DHT22;60111;48.286;7.812;2023-05-07T00:05:25;14.60;76.70
72206;DHT22;60111;48.286;7.812;2023-05-07T00:07:57;14.60;76.70
72206;DHT22;60111;48.286;7.812;2023-05-07T00:10:31;14.60;76.70
72206;DHT22;60111;48.286;7.812;2023-05-07T00:13:03;14.60;76.90
72206;DHT22;60111;48.286;7.812;2023-05-07T00:15:37;14.70;77.20
72206;DHT22;60111;48.286;7.812;2023-05-07T00:18:09;14.70;77.20
72206;DHT22;60111;48.286;7.812;2023-05-07T00:20:42;14.80;77.00
72206;DHT22;60111;48.286;7.812;2023-05-07T00:23:15;14.80;76.90
72206;DHT22;60111;48.286;7.812;2023-05-07T00:25:50;14.90;76.20
72206;DHT22;60111;48.286;7.812;2023-05-07T00:28:22;14.90;75.60
72206;DHT22;60111;48.286;7.812;2023-05-07T00:30:56;14.90;75.60
72206;DHT22;60111;48.286;7.812;2023-05-07T00:33:28;14.80;75.80
72206;DHT22;60111;48.286;7.812;2023-05-07T00:36:01;14.70;75.90
72206;DHT22;60111;48.286;7.812;2023-05-07T00:38:34;14.70;75.70
72206;DHT22;60111;48.286;7.812;2023-05-07T00:41:06;14.70;75.80
72206;DHT22;60111;48.286;7.812;2023-05-07T00:43:39;14.60;75.70
72206;DHT22;60111;48.286;7.812;2023-05-07T00:46:13;14.60;75.90
72206;DHT22;60111;48.286;7.812;2023-05-07T00:48:46;14.50;76.20
72206;DHT22;60111;48.286;7.812;2023-05-07T00:51:19;14.50;76.40
72206;DHT22;60111;48.286;7.812;2023-05-07T00:53:52;14.50;76.50
72206;DHT22;60111;48.286;7.812;2023-05-07T00:56:25;14.40;76.50
72206;DHT22;60111;48.286;7.812;2023-05-07T00:58:57;14.30;76.70
72206;DHT22;60111;48.286;7.812;2023-05-07T01:01:31;14.20;77.20
72206;DHT22;60111;48.286;7.812;2023-05-07T01:04:04;14.20;77.50
72206;DHT22;60111;48.286;7.812;2023-05-07T01:06:37;14.20;77.50
72206;DHT22;60111;48.286;7.812;2023-05-07T01:09:10;14.10;77.20
72206;DHT22;60111;48.286;7.812;2023-05-07T01:11:42;14.00;77.90
72206;DHT22;60111;48.286;7.812;2023-05-07T01:14:16;13.90;78.40
72206;DHT22;60111;48.286;7.812;2023-05-07T01:16:49;13.90;78.70
72206;DHT22;60111;48.286;7.812;2023-05-07T01:19:22;13.90;79.00
72206;DHT22;60111;48.286;7.812;2023-05-07T01:21:58;14.00;78.50
72206;DHT22;60111;48.286;7.812;2023-05-07T01:24:31;14.10;78.10
72206;DHT22;60111;48.286;7.812;2023-05-07T01:27:05;14.00;77.80
72206;DHT22;60111;48.286;7.812;2023-05-07T01:29:37;13.90;78.40
72206;DHT22;60111;48.286;7.812;2023-05-07T01:32:10;13.90;79.00
72206;DHT22;60111;48.286;7.812;2023-05-07T01:34:44;13.80;79.40
72206;DHT22;60111;48.286;7.812;2023-05-07T01:37:18;13.80;79.60
72206;DHT22;60111;48.286;7.812;2023-05-07T01:39:51;13.70;79.70
72206;DHT22;60111;48.286;7.812;2023-05-07T01:42:24;13.80;79.90
72206;DHT22;60111;48.286;7.812;2023-05-07T01:44:57;13.90;79.70
72206;DHT22;60111;48.286;7.812;2023-05-07T01:47:30;13.90;79.40
72206;DHT22;60111;48.286;7.812;2023-05-07T01:50:07;13.90;78.90
72206;DHT22;60111;48.286;7.812;2023-05-07T01:52:40;13.80;78.90
72206;DHT22;60111;48.286;7.812;2023-05-07T01:55:12;13.80;79.00
72206;DHT22;60111;48.286;7.812;2023-05-07T01:57:45;13.80;79.00
72206;DHT22;60111;48.286;7.812;2023-05-07T02:00:18;13.80;78.90
72206;DHT22;60111;48.286;7.812;2023-05-07T02:02:51;13.80;79.20
72206;DHT22;60111;48.286;7.812;2023-05-07T02:05:24;13.80;79.20
72206;DHT22;60111;48.286;7.812;2023-05-07T02:07:57;13.90;78.10
72206;DHT22;60111;48.286;7.812;2023-05-07T02:10:29;13.90;77.40
72206;DHT22;60111;48.286;7.812;2023-05-07T02:13:02;13.80;77.30
72206;DHT22;60111;48.286;7.812;2023-05-07T02:15:34;13.70;77.90
72206;DHT22;60111;48.286;7.812;2023-05-07T02:18:08;13.60;78.80
72206;DHT22;60111;48.286;7.812;2023-05-07T02:20:41;13.60;79.10
72206;DHT22;60111;48.286;7.812;2023-05-07T02:23:14;13.60;78.80
72206;DHT22;60111;48.286;7.812;2023-05-07T02:25:46;13.70;78.30
72206;DHT22;60111;48.286;7.812;2023-05-07T02:28:19;13.60;78.50
72206;DHT22;60111;48.286;7.812;2023-05-07T02:30:52;13.60;78.80
72206;DHT22;60111;48.286;7.812;2023-05-07T02:33:24;13.50;78.90
72206;DHT22;60111;48.286;7.812;2023-05-07T02:36:08;13.50;79.20
72206;DHT22;60111;48.286;7.812;2023-05-07T02:38:42;13.30;79.40
72206;DHT22;60111;48.286;7.812;2023-05-07T02:41:15;13.20;80.00
72206;DHT22;60111;48.286;7.812;2023-05-07T02:43:47;13.20;80.00
72206;DHT22;60111;48.286;7.812;2023-05-07T02:46:20;13.20;79.50
72206;DHT22;60111;48.286;7.812;2023-05-07T02:48:52;13.20;79.30
72206;DHT22;60111;48.286;7.812;2023-05-07T02:51:26;13.20;78.70
72206;DHT22;60111;48.286;7.812;2023-05-07T02:53:58;13.30;78.70
72206;DHT22;60111;48.286;7.812;2023-05-07T02:56:32;13.30;79.40
72206;DHT22;60111;48.286;7.812;2023-05-07T02:59:04;13.20;79.20
72206;DHT22;60111;48.286;7.812;2023-05-07T03:01:38;13.10;79.50
72206;DHT22;60111;48.286;7.812;2023-05-07T03:04:10;13.20;79.60
72206;DHT22;60111;48.286;7.812;2023-05-07T03:06:43;13.20;79.70
72206;DHT22;60111;48.286;7.812;2023-05-07T03:09:15;13.20;79.10
72206;DHT22;60111;48.286;7.812;2023-05-07T03:11:48;13.10;79.40
72206;DHT22;60111;48.286;7.812;2023-05-07T03:14:21;13.10;79.30
72206;DHT22;60111;48.286;7.812;2023-05-07T03:16:53;13.10;79.00
72206;DHT22;60111;48.286;7.812;2023-05-07T03:19:26;13.10;79.10
72206;DHT22;60111;48.286;7.812;2023-05-07T03:21:59;13.10;79.30
72206;DHT22;60111;48.286;7.812;2023-05-07T03:24:31;13.10;79.20
72206;DHT22;60111;48.286;7.812;2023-05-07T03:27:04;13.10;79.30
72206;DHT22;60111;48.286;7.812;2023-05-07T03:29:36;13.10;78.70
72206;DHT22;60111;48.286;7.812;2023-05-07T03:32:10;13.20;78.80
72206;DHT22;60111;48.286;7.812;2023-05-07T03:34:43;13.10;78.90
72206;DHT22;60111;48.286;7.812;2023-05-07T03:37:17;13.10;79.00
72206;DHT22;60111;48.286;7.812;2023-05-07T03:39:50;13.10;78.80
72206;DHT22;60111;48.286;7.812;2023-05-07T03:42:23;13.10;78.60
72206;DHT22;60111;48.286;7.812;2023-05-07T03:44:55;13.10;78.50
72206;DHT22;60111;48.286;7.812;2023-05-07T03:47:28;13.00;78.80
72206;DHT22;60111;48.286;7.812;2023-05-07T03:50:01;12.90;79.00
72206;DHT22;60111;48.286;7.812;2023-05-07T03:52:33;12.90;79.00
72206;DHT22;60111;48.286;7.812;2023-05-07T03:55:06;12.80;78.70
72206;DHT22;60111;48.286;7.812;2023-05-07T03:57:40;12.80;79.00
72206;DHT22;60111;48.286;7.812;2023-05-07T04:00:13;12.90;79.20
72206;DHT22;60111;48.286;7.812;2023-05-07T04:02:46;12.90;78.90
72206;DHT22;60111;48.286;7.812;2023-05-07T04:05:18;13.10;78.50
72206;DHT22;60111;48.286;7.812;2023-05-07T04:07:51;13.00;78.30
72206;DHT22;60111;48.286;7.812;2023-05-07T04:10:23;12.90;78.60
72206;DHT22;60111;48.286;7.812;2023-05-07T04:12:56;12.80;78.90
72206;DHT22;60111;48.286;7.812;2023-05-07T04:15:29;12.80;79.50
72206;DHT22;60111;48.286;7.812;2023-05-07T04:18:01;12.80;79.30
72206;DHT22;60111;48.286;7.812;2023-05-07T04:20:34;12.80;79.60
72206;DHT22;60111;48.286;7.812;2023-05-07T04:23:08;13.00;78.80
72206;DHT22;60111;48.286;7.812;2023-05-07T04:25:41;12.90;79.00
72206;DHT22;60111;48.286;7.812;2023-05-07T04:28:14;12.70;79.50
72206;DHT22;60111;48.286;7.812;2023-05-07T04:30:46;12.70;80.10
72206;DHT22;60111;48.286;7.812;2023-05-07T04:33:19;12.70;80.10
72206;DHT22;60111;48.286;7.812;2023-05-07T04:35:52;12.80;80.10
72206;DHT22;60111;48.286;7.812;2023-05-07T04:38:25;12.80;80.00
72206;DHT22;60111;48.286;7.812;2023-05-07T04:41:08;13.00;79.30
72206;DHT22;60111;48.286;7.812;2023-05-07T04:43:32;13.00;78.80
72206;DHT22;60111;48.286;7.812;2023-05-07T04:46:06;13.10;78.90
72206;DHT22;60111;48.286;7.812;2023-05-07T04:48:39;13.00;79.00
72206;DHT22;60111;48.286;7.812;2023-05-07T04:51:12;13.00;78.80
72206;DHT22;60111;48.286;7.812;2023-05-07T04:53:44;13.00;78.80
72206;DHT22;60111;48.286;7.812;2023-05-07T04:56:17;13.10;78.60
72206;DHT22;60111;48.286;7.812;2023-05-07T04:58:49;13.20;78.00
72206;DHT22;60111;48.286;7.812;2023-05-07T05:01:22;13.20;78.00
72206;DHT22;60111;48.286;7.812;2023-05-07T05:03:55;13.30;78.30
72206;DHT22;60111;48.286;7.812;2023-05-07T05:06:27;13.50;77.50
72206;DHT22;60111;48.286;7.812;2023-05-07T05:09:00;13.60;77.00
72206;DHT22;60111;48.286;7.812;2023-05-07T05:11:34;13.60;77.50
72206;DHT22;60111;48.286;7.812;2023-05-07T05:14:06;13.50;78.00
72206;DHT22;60111;48.286;7.812;2023-05-07T05:16:39;13.60;77.90
72206;DHT22;60111;48.286;7.812;2023-05-07T05:19:11;13.70;77.80
72206;DHT22;60111;48.286;7.812;2023-05-07T05:21:44;13.80;77.10
72206;DHT22;60111;48.286;7.812;2023-05-07T05:24:17;13.90;77.00
72206;DHT22;60111;48.286;7.812;2023-05-07T05:26:49;14.00;77.10
72206;DHT22;60111;48.286;7.812;2023-05-07T05:29:22;13.80;77.60
72206;DHT22;60111;48.286;7.812;2023-05-07T05:31:55;13.80;78.00
72206;DHT22;60111;48.286;7.812;2023-05-07T05:34:27;13.80;77.80
72206;DHT22;60111;48.286;7.812;2023-05-07T05:37:00;14.00;77.30
72206;DHT22;60111;48.286;7.812;2023-05-07T05:39:33;14.00;77.00
72206;DHT22;60111;48.286;7.812;2023-05-07T05:42:05;14.10;76.40
72206;DHT22;60111;48.286;7.812;2023-05-07T05:44:38;14.10;76.50
72206;DHT22;60111;48.286;7.812;2023-05-07T05:47:11;14.10;76.80
72206;DHT22;60111;48.286;7.812;2023-05-07T05:49:43;14.20;76.80
72206;DHT22;60111;48.286;7.812;2023-05-07T05:52:17;14.20;76.80
72206;DHT22;60111;48.286;7.812;2023-05-07T05:54:50;14.30;77.20
72206;DHT22;60111;48.286;7.812;2023-05-07T05:57:22;14.40;77.10
72206;DHT22;60111;48.286;7.812;2023-05-07T05:59:55;14.50;77.20
72206;DHT22;60111;48.286;7.812;2023-05-07T06:02:27;14.60;76.90
72206;DHT22;60111;48.286;7.812;2023-05-07T06:05:00;14.70;76.40
72206;DHT22;60111;48.286;7.812;2023-05-07T06:07:32;14.70;76.30
72206;DHT22;60111;48.286;7.812;2023-05-07T06:10:06;14.80;75.70
72206;DHT22;60111;48.286;7.812;2023-05-07T06:12:39;14.90;74.90
72206;DHT22;60111;48.286;7.812;2023-05-07T06:15:13;14.80;75.70
72206;DHT22;60111;48.286;7.812;2023-05-07T06:17:46;14.80;75.80
72206;DHT22;60111;48.286;7.812;2023-05-07T06:20:18;14.70;75.60
72206;DHT22;60111;48.286;7.812;2023-05-07T06:22:51;14.80;76.20
72206;DHT22;60111;48.286;7.812;2023-05-07T06:25:24;14.90;75.70
72206;DHT22;60111;48.286;7.812;2023-05-07T06:27:56;14.90;75.80
72206;DHT22;60111;48.286;7.812;2023-05-07T06:30:29;15.00;76.20
72206;DHT22;60111;48.286;7.812;2023-05-07T06:33:01;15.10;75.70
72206;DHT22;60111;48.286;7.812;2023-05-07T06:35:34;15.40;75.00
72206;DHT22;60111;48.286;7.812;2023-05-07T06:38:06;15.50;73.50
72206;DHT22;60111;48.286;7.812;2023-05-07T06:40:39;15.70;72.70
72206;DHT22;60111;48.286;7.812;2023-05-07T06:43:11;16.00;72.20
72206;DHT22;60111;48.286;7.812;2023-05-07T06:45:44;16.20;71.90
72206;DHT22;60111;48.286;7.812;2023-05-07T06:48:17;16.60;70.20
72206;DHT22;60111;48.286;7.812;2023-05-07T06:50:49;16.60;69.70
72206;DHT22;60111;48.286;7.812;2023-05-07T06:53:22;16.70;69.30
72206;DHT22;60111;48.286;7.812;2023-05-07T06:55:55;16.60;69.10
72206;DHT22;60111;48.286;7.812;2023-05-07T06:58:28;16.60;69.70
72206;DHT22;60111;48.286;7.812;2023-05-07T07:01:00;16.50;69.60
72206;DHT22;60111;48.286;7.812;2023-05-07T07:03:33;16.50;69.60
72206;DHT22;60111;48.286;7.812;2023-05-07T07:06:06;16.50;69.60
72206;DHT22;60111;48.286;7.812;2023-05-07T07:08:38;16.50;70.30
72206;DHT22;60111;48.286;7.812;2023-05-07T07:11:12;16.50;69.60
72206;DHT22;60111;48.286;7.812;2023-05-07T07:13:45;16.60;69.80
72206;DHT22;60111;48.286;7.812;2023-05-07T07:16:18;16.70;70.00
72206;DHT22;60111;48.286;7.812;2023-05-07T07:18:51;17.00;69.00
72206;DHT22;60111;48.286;7.812;2023-05-07T07:21:24;17.80;66.20
72206;DHT22;60111;48.286;7.812;2023-05-07T07:23:57;19.00;62.70
72206;DHT22;60111;48.286;7.812;2023-05-07T07:26:29;19.50;60.80
72206;DHT22;60111;48.286;7.812;2023-05-07T07:29:02;19.90;60.20
72206;DHT22;60111;48.286;7.812;2023-05-07T07:31:35;20.60;58.40
72206;DHT22;60111;48.286;7.812;2023-05-07T07:34:07;21.10;56.70
72206;DHT22;60111;48.286;7.812;2023-05-07T07:36:41;21.00;55.80
72206;DHT22;60111;48.286;7.812;2023-05-07T07:39:13;21.50;55.10
72206;DHT22;60111;48.286;7.812;2023-05-07T07:41:46;21.90;54.00
72206;DHT22;60111;48.286;7.812;2023-05-07T07:44:19;22.50;53.10
72206;DHT22;60111;48.286;7.812;2023-05-07T07:46:52;22.90;51.60
72206;DHT22;60111;48.286;7.812;2023-05-07T07:49:45;22.40;52.00
72206;DHT22;60111;48.286;7.812;2023-05-07T07:52:18;22.10;52.90
72206;DHT22;60111;48.286;7.812;2023-05-07T07:54:51;21.70;53.80
72206;DHT22;60111;48.286;7.812;2023-05-07T07:57:23;21.30;54.70
72206;DHT22;60111;48.286;7.812;2023-05-07T07:59:56;20.90;54.80
72206;DHT22;60111;48.286;7.812;2023-05-07T08:02:29;20.60;56.50
72206;DHT22;60111;48.286;7.812;2023-05-07T08:05:02;20.40;56.90
72206;DHT22;60111;48.286;7.812;2023-05-07T08:07:34;20.40;56.40
72206;DHT22;60111;48.286;7.812;2023-05-07T08:10:07;20.30;56.60
72206;DHT22;60111;48.286;7.812;2023-05-07T08:12:41;20.30;57.30
72206;DHT22;60111;48.286;7.812;2023-05-07T08:15:13;20.50;57.20
72206;DHT22;60111;48.286;7.812;2023-05-07T08:17:46;21.00;56.20
72206;DHT22;60111;48.286;7.812;2023-05-07T08:20:18;21.40;54.80
72206;DHT22;60111;48.286;7.812;2023-05-07T08:22:51;21.70;54.60
72206;DHT22;60111;48.286;7.812;2023-05-07T08:25:24;21.90;53.90
72206;DHT22;60111;48.286;7.812;2023-05-07T08:27:56;22.20;53.20
72206;DHT22;60111;48.286;7.812;2023-05-07T08:30:29;22.50;52.10
72206;DHT22;60111;48.286;7.812;2023-05-07T08:33:02;22.60;52.00
72206;DHT22;60111;48.286;7.812;2023-05-07T08:35:34;22.80;51.80
72206;DHT22;60111;48.286;7.812;2023-05-07T08:38:07;22.80;52.60
72206;DHT22;60111;48.286;7.812;2023-05-07T08:40:40;22.80;52.40
72206;DHT22;60111;48.286;7.812;2023-05-07T08:43:13;23.00;51.80
72206;DHT22;60111;48.286;7.812;2023-05-07T08:45:45;23.30;51.20
72206;DHT22;60111;48.286;7.812;2023-05-07T08:48:21;23.50;51.10
72206;DHT22;60111;48.286;7.812;2023-05-07T08:50:54;23.70;50.60
72206;DHT22;60111;48.286;7.812;2023-05-07T08:53:27;23.90;50.60
72206;DHT22;60111;48.286;7.812;2023-05-07T08:56:00;24.00;49.90
72206;DHT22;60111;48.286;7.812;2023-05-07T08:58:32;24.30;48.70
72206;DHT22;60111;48.286;7.812;2023-05-07T09:01:11;24.50;48.40
72206;DHT22;60111;48.286;7.812;2023-05-07T09:03:45;24.70;48.80
72206;DHT22;60111;48.286;7.812;2023-05-07T09:06:18;24.50;48.80
72206;DHT22;60111;48.286;7.812;2023-05-07T09:08:52;24.30;48.90
72206;DHT22;60111;48.286;7.812;2023-05-07T09:11:25;24.20;48.40
72206;DHT22;60111;48.286;7.812;2023-05-07T09:13:58;24.30;48.60
72206;DHT22;60111;48.286;7.812;2023-05-07T09:16:32;24.60;47.20
72206;DHT22;60111;48.286;7.812;2023-05-07T09:19:04;24.40;47.80
72206;DHT22;60111;48.286;7.812;2023-05-07T09:21:37;24.30;48.60
72206;DHT22;60111;48.286;7.812;2023-05-07T09:24:09;24.40;48.10
72206;DHT22;60111;48.286;7.812;2023-05-07T09:26:42;24.50;47.80
72206;DHT22;60111;48.286;7.812;2023-05-07T09:29:16;24.60;46.80
72206;DHT22;60111;48.286;7.812;2023-05-07T09:31:49;24.60;46.80
72206;DHT22;60111;48.286;7.812;2023-05-07T09:34:21;24.80;47.00
72206;DHT22;60111;48.286;7.812;2023-05-07T09:36:54;24.90;45.40
72206;DHT22;60111;48.286;7.812;2023-05-07T09:39:39;24.90;45.00
72206;DHT22;60111;48.286;7.812;2023-05-07T09:42:13;24.80;45.20
72206;DHT22;60111;48.286;7.812;2023-05-07T09:44:48;24.80;46.10
72206;DHT22;60111;48.286;7.812;2023-05-07T09:47:24;24.80;45.70
72206;DHT22;60111;48.286;7.812;2023-05-07T09:49:57;24.80;45.90
72206;DHT22;60111;48.286;7.812;2023-05-07T09:52:30;24.70;46.30
72206;DHT22;60111;48.286;7.812;2023-05-07T09:55:05;24.60;46.20
72206;DHT22;60111;48.286;7.812;2023-05-07T09:57:40;24.50;47.00
72206;DHT22;60111;48.286;7.812;2023-05-07T10:00:14;24.70;46.80
72206;DHT22;60111;48.286;7.812;2023-05-07T10:02:49;24.80;47.10
72206;DHT22;60111;48.286;7.812;2023-05-07T10:05:23;24.40;46.50
72206;DHT22;60111;48.286;7.812;2023-05-07T10:08:15;24.40;46.60
72206;DHT22;60111;48.286;7.812;2023-05-07T10:10:49;24.30;46.90
72206;DHT22;60111;48.286;7.812;2023-05-07T10:13:22;24.60;46.90
72206;DHT22;60111;48.286;7.812;2023-05-07T10:15:55;24.90;47.70
72206;DHT22;60111;48.286;7.812;2023-05-07T10:18:29;25.00;47.80
72206;DHT22;60111;48.286;7.812;2023-05-07T10:21:21;24.90;48.10
72206;DHT22;60111;48.286;7.812;2023-05-07T10:24:16;24.70;48.70
72206;DHT22;60111;48.286;7.812;2023-05-07T10:26:49;24.80;49.00
72206;DHT22;60111;48.286;7.812;2023-05-07T10:29:33;24.70;48.50
72206;DHT22;60111;48.286;7.812;2023-05-07T10:32:39;24.50;49.60
72206;DHT22;60111;48.286;7.812;2023-05-07T10:35:24;24.50;50.20
72206;DHT22;60111;48.286;7.812;2023-05-07T10:37:52;24.00;51.10
72206;DHT22;60111;48.286;7.812;2023-05-07T10:40:25;23.70;51.40
72206;DHT22;60111;48.286;7.812;2023-05-07T10:43:17;23.60;52.20
72206;DHT22;60111;48.286;7.812;2023-05-07T10:46:19;23.60;52.70
72206;DHT22;60111;48.286;7.812;2023-05-07T10:51:39;23.60;53.20
72206;DHT22;60111;48.286;7.812;2023-05-07T10:56:49;23.80;52.00
72206;DHT22;60111;48.286;7.812;2023-05-07T10:59:30;23.60;52.40
72206;DHT22;60111;48.286;7.812;2023-05-07T11:02:03;23.80;51.50
72206;DHT22;60111;48.286;7.812;2023-05-07T11:04:37;23.90;52.00
72206;DHT22;60111;48.286;7.812;2023-05-07T11:07:24;23.70;51.60
72206;DHT22;60111;48.286;7.812;2023-05-07T11:15:14;23.20;52.30
72206;DHT22;60111;48.286;7.812;2023-05-07T11:20:46;22.70;54.30
72206;DHT22;60111;48.286;7.812;2023-05-07T11:26:12;22.90;54.30
72206;DHT22;60111;48.286;7.812;2023-05-07T11:28:44;22.90;54.40
72206;DHT22;60111;48.286;7.812;2023-05-07T11:31:22;22.90;53.60
72206;DHT22;60111;48.286;7.812;2023-05-07T11:33:55;22.60;54.40
72206;DHT22;60111;48.286;7.812;2023-05-07T11:36:30;22.40;55.10
72206;DHT22;60111;48.286;7.812;2023-05-07T11:39:03;22.10;55.50
72206;DHT22;60111;48.286;7.812;2023-05-07T11:41:37;21.80;56.40
72206;DHT22;60111;48.286;7.812;2023-05-07T11:44:09;21.50;57.00
72206;DHT22;60111;48.286;7.812;2023-05-07T11:46:43;21.40;57.10
72206;DHT22;60111;48.286;7.812;2023-05-07T11:49:17;21.30;57.10
72206;DHT22;60111;48.286;7.812;2023-05-07T11:51:50;21.40;56.90
72206;DHT22;60111;48.286;7.812;2023-05-07T11:54:23;21.30;56.30
72206;DHT22;60111;48.286;7.812;2023-05-07T11:56:56;21.30;56.80
72206;DHT22;60111;48.286;7.812;2023-05-07T11:59:37;21.20;57.60
72206;DHT22;60111;48.286;7.812;2023-05-07T12:02:05;21.00;57.70
72206;DHT22;60111;48.286;7.812;2023-05-07T12:04:39;20.90;57.90
72206;DHT22;60111;48.286;7.812;2023-05-07T12:07:14;20.80;59.00
72206;DHT22;60111;48.286;7.812;2023-05-07T12:09:47;20.80;60.30
72206;DHT22;60111;48.286;7.812;2023-05-07T12:12:20;20.70;61.70
72206;DHT22;60111;48.286;7.812;2023-05-07T12:14:52;20.50;63.40
72206;DHT22;60111;48.286;7.812;2023-05-07T12:17:25;20.30;64.30
72206;DHT22;60111;48.286;7.812;2023-05-07T12:19:57;20.40;63.70
72206;DHT22;60111;48.286;7.812;2023-05-07T12:22:30;20.40;63.30
72206;DHT22;60111;48.286;7.812;2023-05-07T12:25:03;20.30;62.70
72206;DHT22;60111;48.286;7.812;2023-05-07T12:27:37;20.20;63.40
72206;DHT22;60111;48.286;7.812;2023-05-07T12:30:12;20.10;64.50
72206;DHT22;60111;48.286;7.812;2023-05-07T12:32:45;20.30;64.70
72206;DHT22;60111;48.286;7.812;2023-05-07T12:35:31;20.50;63.70
72206;DHT22;60111;48.286;7.812;2023-05-07T12:38:00;20.40;64.40
72206;DHT22;60111;48.286;7.812;2023-05-07T12:40:43;20.30;63.50
72206;DHT22;60111;48.286;7.812;2023-05-07T12:43:20;20.40;65.90
72206;DHT22;60111;48.286;7.812;2023-05-07T12:45:57;20.40;66.00
72206;DHT22;60111;48.286;7.812;2023-05-07T12:48:30;20.60;63.40
72206;DHT22;60111;48.286;7.812;2023-05-07T12:51:03;20.50;62.80
72206;DHT22;60111;48.286;7.812;2023-05-07T12:53:39;20.60;63.00
72206;DHT22;60111;48.286;7.812;2023-05-07T12:56:15;20.70;62.70
72206;DHT22;60111;48.286;7.812;2023-05-07T12:58:49;20.80;62.90
72206;DHT22;60111;48.286;7.812;2023-05-07T13:01:21;20.90;63.20
72206;DHT22;60111;48.286;7.812;2023-05-07T13:03:55;21.00;63.50
72206;DHT22;60111;48.286;7.812;2023-05-07T13:06:29;21.20;63.00
72206;DHT22;60111;48.286;7.812;2023-05-07T13:09:03;21.20;63.10
72206;DHT22;60111;48.286;7.812;2023-05-07T13:11:36;21.20;63.80
72206;DHT22;60111;48.286;7.812;2023-05-07T13:14:09;21.30;62.60
72206;DHT22;60111;48.286;7.812;2023-05-07T13:16:42;21.20;61.60
72206;DHT22;60111;48.286;7.812;2023-05-07T13:19:15;21.30;60.10
72206;DHT22;60111;48.286;7.812;2023-05-07T13:21:47;21.50;59.30
72206;DHT22;60111;48.286;7.812;2023-05-07T13:24:21;21.70;59.60
72206;DHT22;60111;48.286;7.812;2023-05-07T13:26:53;21.90;56.90
72206;DHT22;60111;48.286;7.812;2023-05-07T13:29:26;22.00;55.10
72206;DHT22;60111;48.286;7.812;2023-05-07T13:32:01;22.10;55.00
72206;DHT22;60111;48.286;7.812;2023-05-07T13:34:34;22.20;53.90
72206;DHT22;60111;48.286;7.812;2023-05-07T13:37:07;22.20;53.90
72206;DHT22;60111;48.286;7.812;2023-05-07T13:39:39;22.30;53.80
72206;DHT22;60111;48.286;7.812;2023-05-07T13:42:12;22.30;53.90
72206;DHT22;60111;48.286;7.812;2023-05-07T13:44:45;22.20;54.40
72206;DHT22;60111;48.286;7.812;2023-05-07T13:47:17;22.20;54.50
72206;DHT22;60111;48.286;7.812;2023-05-07T13:49:50;22.20;54.70
72206;DHT22;60111;48.286;7.812;2023-05-07T13:52:22;22.10;55.20
72206;DHT22;60111;48.286;7.812;2023-05-07T13:54:55;22.10;55.50
72206;DHT22;60111;48.286;7.812;2023-05-07T13:57:29;21.90;55.10
72206;DHT22;60111;48.286;7.812;2023-05-07T14:00:03;21.70;56.30
72206;DHT22;60111;48.286;7.812;2023-05-07T14:02:36;21.60;56.80
72206;DHT22;60111;48.286;7.812;2023-05-07T14:05:09;21.50;57.20
72206;DHT22;60111;48.286;7.812;2023-05-07T14:07:42;21.40;57.50
72206;DHT22;60111;48.286;7.812;2023-05-07T14:10:14;21.30;57.40
72206;DHT22;60111;48.286;7.812;2023-05-07T14:12:47;21.10;57.60
72206;DHT22;60111;48.286;7.812;2023-05-07T14:15:20;20.90;58.20
72206;DHT22;60111;48.286;7.812;2023-05-07T14:17:52;20.80;58.10
72206;DHT22;60111;48.286;7.812;2023-05-07T14:20:25;20.80;58.20
72206;DHT22;60111;48.286;7.812;2023-05-07T14:22:58;20.80;58.50
72206;DHT22;60111;48.286;7.812;2023-05-07T14:25:30;20.80;59.10
72206;DHT22;60111;48.286;7.812;2023-05-07T14:28:03;20.70;59.50
72206;DHT22;60111;48.286;7.812;2023-05-07T14:30:35;20.80;59.30
72206;DHT22;60111;48.286;7.812;2023-05-07T14:33:08;20.90;59.20
72206;DHT22;60111;48.286;7.812;2023-05-07T14:35:41;21.10;58.80
72206;DHT22;60111;48.286;7.812;2023-05-07T14:38:15;21.10;59.00
72206;DHT22;60111;48.286;7.812;2023-05-07T14:40:48;21.10;59.00
72206;DHT22;60111;48.286;7.812;2023-05-07T14:43:20;21.20;59.00
72206;DHT22;60111;48.286;7.812;2023-05-07T14:45:53;21.40;58.80
72206;DHT22;60111;48.286;7.812;2023-05-07T14:48:26;21.50;58.70
72206;DHT22;60111;48.286;7.812;2023-05-07T14:50:58;21.50;58.80
72206;DHT22;60111;48.286;7.812;2023-05-07T14:53:31;21.50;58.90
72206;DHT22;60111;48.286;7.812;2023-05-07T14:56:04;21.50;58.90
72206;DHT22;60111;48.286;7.812;2023-05-07T14:58:37;21.50;58.90
72206;DHT22;60111;48.286;7.812;2023-05-07T15:01:10;21.40;59.20
72206;DHT22;60111;48.286;7.812;2023-05-07T15:03:42;21.50;57.90
72206;DHT22;60111;48.286;7.812;2023-05-07T15:06:15;21.40;58.30
72206;DHT22;60111;48.286;7.812;2023-05-07T15:08:47;21.40;59.00
72206;DHT22;60111;48.286;7.812;2023-05-07T15:11:20;21.40;58.30
72206;DHT22;60111;48.286;7.812;2023-05-07T15:13:53;21.20;58.50
72206;DHT22;60111;48.286;7.812;2023-05-07T15:16:25;21.10;58.40
72206;DHT22;60111;48.286;7.812;2023-05-07T15:18:58;21.00;58.70
72206;DHT22;60111;48.286;7.812;2023-05-07T15:21:30;21.00;58.80
72206;DHT22;60111;48.286;7.812;2023-05-07T15:24:04;21.10;58.60
72206;DHT22;60111;48.286;7.812;2023-05-07T15:26:37;21.10;58.30
72206;DHT22;60111;48.286;7.812;2023-05-07T15:29:09;21.00;58.50
72206;DHT22;60111;48.286;7.812;2023-05-07T15:31:42;21.00;58.70
72206;DHT22;60111;48.286;7.812;2023-05-07T15:34:15;21.00;58.50
72206;DHT22;60111;48.286;7.812;2023-05-07T15:36:48;21.20;57.90
72206;DHT22;60111;48.286;7.812;2023-05-07T15:39:21;21.20;58.30
72206;DHT22;60111;48.286;7.812;2023-05-07T15:41:53;21.20;57.80
72206;DHT22;60111;48.286;7.812;2023-05-07T15:44:26;21.30;57.50
72206;DHT22;60111;48.286;7.812;2023-05-07T15:47:00;21.30;57.80
72206;DHT22;60111;48.286;7.812;2023-05-07T15:49:32;21.30;57.70
72206;DHT22;60111;48.286;7.812;2023-05-07T15:52:05;21.30;57.70
72206;DHT22;60111;48.286;7.812;2023-05-07T15:54:37;21.20;56.90
72206;DHT22;60111;48.286;7.812;2023-05-07T15:57:10;21.20;55.70
72206;DHT22;60111;48.286;7.812;2023-05-07T15:59:42;20.90;55.10
72206;DHT22;60111;48.286;7.812;2023-05-07T16:02:15;20.90;55.10
72206;DHT22;60111;48.286;7.812;2023-05-07T16:04:47;20.90;54.50
72206;DHT22;60111;48.286;7.812;2023-05-07T16:07:20;20.80;55.60
72206;DHT22;60111;48.286;7.812;2023-05-07T16:09:53;20.90;55.50
72206;DHT22;60111;48.286;7.812;2023-05-07T16:12:25;21.00;55.00
72206;DHT22;60111;48.286;7.812;2023-05-07T16:14:58;21.10;54.50
72206;DHT22;60111;48.286;7.812;2023-05-07T16:17:30;21.20;54.10
72206;DHT22;60111;48.286;7.812;2023-05-07T16:20:03;21.20;54.10
72206;DHT22;60111;48.286;7.812;2023-05-07T16:22:37;21.30;54.00
72206;DHT22;60111;48.286;7.812;2023-05-07T16:25:09;21.30;54.10